Time;durP1;ratioP1;P1;durP2;ratioP2;P2;SDS_P1;SDS_P2;PMS_P1;PMS_P2;Temp;Humidity;BMP_temperature;BMP_pressure;BME280_temperature;BME280_humidity;BME280_pressure;Samples;Min_cycle;Max_cycle;Signal;HPM_P1;HPM_P2
2022/01/27 00:03:05;;;;;;;;;58.75;45.25;;;;;6.18;66.24;103067.06;5010314;28;45438;-64
2022/01/27 00:05:31;;;;;;;;;60.25;46.75;;;;;6.21;65.91;103063.56;5008690;28;45444;-64
2022/01/27 00:10:47;;;;;;;;;61.50;45.00;;;;;6.28;65.72;103060.06;5013083;28;45456;-65
2022/01/27 00:13:15;;;;;;;;;61.25;41.75;;;;;6.31;65.70;103058.28;5011619;28;45503;-64
2022/01/27 00:15:42;;;;;;;;;47.00;38.25;;;;;6.34;65.25;103066.13;5012069;28;45574;-65
2022/01/27 00:18:14;;;;;;;;;63.00;42.75;;;;;6.37;65.62;103055.63;5008885;28;47872;-65
2022/01/27 00:20:40;;;;;;;;;51.25;42.75;;;;;6.40;64.80;103055.66;5009638;28;45384;-65
2022/01/27 00:23:06;;;;;;;;;51.25;41.00;;;;;6.42;65.06;103056.50;5011381;28;45612;-64
2022/01/27 00:25:32;;;;;;;;;56.50;43.25;;;;;6.40;65.62;103050.41;5010936;28;45404;-64
2022/01/27 00:27:57;;;;;;;;;61.75;42.25;;;;;6.37;64.82;103045.16;5011892;28;45426;-64
2022/01/27 00:30:23;;;;;;;;;57.25;41.75;;;;;6.37;65.11;103039.06;5008449;28;45341;-64
2022/01/27 00:32:49;;;;;;;;;57.00;42.25;;;;;6.39;65.44;103034.69;5008893;28;45436;-64
2022/01/27 00:35:14;;;;;;;;;51.75;41.25;;;;;6.41;65.42;103033.81;5007446;28;45433;-64
2022/01/27 00:37:40;;;;;;;;;59.25;40.75;;;;;6.41;64.93;103031.19;5008319;28;45439;-64
2022/01/27 00:40:07;;;;;;;;;47.00;38.00;;;;;6.48;65.47;103034.66;5011171;28;45506;-64
2022/01/27 00:42:34;;;;;;;;;60.00;42.00;;;;;6.49;65.54;103028.53;5009706;28;45485;-65
2022/01/27 00:44:59;;;;;;;;;54.00;39.25;;;;;6.52;65.07;103027.66;5011448;28;45751;-63
2022/01/27 00:47:25;;;;;;;;;56.75;40.25;;;;;6.53;65.06;103025.00;5011547;28;46090;-63
2022/01/27 00:49:51;;;;;;;;;57.25;41.50;;;;;6.53;65.20;103026.75;5009647;28;45468;-63
2022/01/27 00:52:25;;;;;;;;;45.25;39.50;;;;;6.55;65.16;103019.75;5012260;28;45154;-63
2022/01/27 00:54:52;;;;;;;;;57.75;39.75;;;;;6.54;65.34;103013.66;5010808;28;45365;-62
2022/01/27 00:57:35;;;;;;;;;54.00;39.25;;;;;6.55;64.67;103015.38;5013250;28;45400;-62
2022/01/27 01:00:03;;;;;;;;;48.25;39.25;;;;;6.53;64.88;103009.31;5011367;28;45252;-62
2022/01/27 01:05:34;;;;;;;;;45.50;39.00;;;;;6.49;65.04;103004.13;5010361;28;45293;-62
2022/01/27 01:07:50;;;;;;;;;52.00;37.25;;;;;6.50;64.66;102993.63;5010715;28;45308;-63
2022/01/27 01:15:31;;;;;;;;;48.75;33.50;;;;;6.50;64.62;102984.91;5011429;28;45444;-61
2022/01/27 01:21:01;;;;;;;;;58.00;39.25;;;;;6.53;64.47;102980.50;5010921;28;45225;-63
2022/01/27 01:32:08;;;;;;;;;47.25;34.50;;;;;6.57;64.96;102965.66;5008939;28;45481;-63
2022/01/27 01:34:33;;;;;;;;;37.00;31.75;;;;;6.58;64.56;102965.63;5011251;28;45483;-63
2022/01/27 01:37:07;;;;;;;;;49.75;36.50;;;;;6.60;64.85;102955.16;5011200;28;45404;-63
2022/01/27 01:39:35;;;;;;;;;50.00;38.25;;;;;6.60;64.33;102956.00;5011973;28;45450;-63
2022/01/27 01:42:06;;;;;;;;;46.50;36.75;;;;;6.61;64.68;102959.50;5012249;28;45419;-61
2022/01/27 01:44:32;;;;;;;;;32.50;28.00;;;;;6.63;64.72;102957.72;5013565;28;45330;-61
2022/01/27 01:46:58;;;;;;;;;37.75;29.25;;;;;6.63;64.50;102957.72;5013642;28;45346;-61
2022/01/27 01:49:26;;;;;;;;;41.25;35.75;;;;;6.66;64.20;102970.81;5014467;28;46152;-64
2022/01/27 01:51:53;;;;;;;;;43.75;35.25;;;;;6.69;64.09;102965.56;5012645;28;45345;-62
2022/01/27 01:54:19;;;;;;;;;48.25;37.75;;;;;6.72;64.06;102955.06;5011418;28;46379;-62
2022/01/27 01:56:45;;;;;;;;;45.75;33.50;;;;;6.73;64.45;102948.94;5010776;28;45465;-62
2022/01/27 01:59:11;;;;;;;;;39.75;31.00;;;;;6.74;64.61;102945.44;5008055;28;45452;-62
2022/01/27 02:01:37;;;;;;;;;7.75;5.00;;;;;6.71;64.41;102938.50;5009645;28;45550;-62
2022/01/27 02:04:07;;;;;;;;;44.00;36.00;;;;;6.72;64.12;102939.34;5010074;28;45468;-63
2022/01/27 02:06:43;;;;;;;;;51.25;38.00;;;;;6.73;64.44;102938.47;5006768;28;45171;-62
2022/01/27 02:19:53;;;;;;;;;47.50;41.25;;;;;6.78;64.24;102936.66;5012122;28;45426;-62
2022/01/27 02:22:20;;;;;;;;;47.50;37.50;;;;;6.80;64.54;102945.41;5010773;28;45337;-62
2022/01/27 02:24:46;;;;;;;;;41.75;31.00;;;;;6.81;64.16;102943.66;5010542;28;45353;-62
2022/01/27 02:27:14;;;;;;;;;61.00;41.75;;;;;6.77;64.43;102934.06;5009880;28;45311;-62
2022/01/27 02:29:40;;;;;;;;;51.75;37.25;;;;;6.79;64.12;102935.78;5008536;28;46265;-62
2022/01/27 02:32:07;;;;;;;;;57.00;40.75;;;;;6.77;64.45;102932.31;5010930;28;45365;-62
2022/01/27 02:34:34;;;;;;;;;56.75;41.25;;;;;6.76;64.42;102933.19;5010730;28;45490;-63
2022/01/27 02:37:00;;;;;;;;;66.50;43.00;;;;;6.77;64.36;102923.59;5011201;28;45417;-62
2022/01/27 02:39:26;;;;;;;;;67.00;43.00;;;;;6.76;64.86;102925.34;5012049;28;46278;-62
2022/01/27 02:42:00;;;;;;;;;64.00;49.50;;;;;6.76;65.16;102927.09;5014481;28;45447;-62
2022/01/27 02:44:34;;;;;;;;;66.00;49.00;;;;;6.74;64.74;102923.63;5016853;28;45238;-62
2022/01/27 02:47:01;;;;;;;;;58.25;43.00;;;;;6.71;64.90;102919.25;5013591;28;45458;-62
2022/01/27 02:49:27;;;;;;;;;52.75;44.00;;;;;6.69;65.16;102915.78;5014559;28;45341;-62
2022/01/27 02:51:53;;;;;;;;;61.00;45.50;;;;;6.67;65.28;102910.56;5012757;28;45531;-62
2022/01/27 02:54:19;;;;;;;;;65.25;49.50;;;;;6.69;65.25;102923.66;5012041;28;45562;-62
2022/01/27 02:56:47;;;;;;;;;58.25;46.25;;;;;6.66;64.97;102915.81;5012082;28;45431;-62
2022/01/27 02:59:14;;;;;;;;;61.00;46.00;;;;;6.69;64.88;102913.16;5010887;28;45995;-62
2022/01/27 03:01:40;;;;;;;;;61.50;44.50;;;;;6.70;65.33;102907.91;5013282;28;45340;-62
2022/01/27 03:04:05;;;;;;;;;63.50;43.00;;;;;6.70;64.79;102902.69;5014096;28;45278;-62
2022/01/27 03:06:31;;;;;;;;;66.75;47.00;;;;;6.71;64.91;102907.06;5012722;28;45348;-62
2022/01/27 03:08:57;;;;;;;;;64.00;45.75;;;;;6.74;65.39;102900.91;5011376;28;46373;-63
2022/01/27 03:11:43;;;;;;;;;66.50;49.25;;;;;6.76;65.15;102906.13;5011842;28;45279;-62
2022/01/27 03:14:08;;;;;;;;;58.00;42.25;;;;;6.76;64.96;102909.63;5011940;28;45162;-62
2022/01/27 03:16:34;;;;;;;;;60.50;44.75;;;;;6.75;65.23;102905.28;5012554;28;45571;-62
2022/01/27 03:19:00;;;;;;;;;53.00;40.50;;;;;6.73;65.11;102901.81;5013677;28;46232;-62
2022/01/27 03:21:26;;;;;;;;;58.00;40.50;;;;;6.74;64.64;102900.91;5011551;28;45163;-62
2022/01/27 03:23:51;;;;;;;;;66.25;42.25;;;;;6.74;64.89;102895.69;5014320;28;45419;-62
2022/01/27 03:26:17;;;;;;;;;59.50;43.25;;;;;6.73;64.76;102904.41;5015071;28;45594;-61
2022/01/27 03:28:42;;;;;;;;;66.00;46.50;;;;;6.68;65.46;102899.22;5013019;28;45470;-61
2022/01/27 03:31:08;;;;;;;;;57.00;44.00;;;;;6.70;65.45;102904.44;5013349;28;45564;-61
2022/01/27 03:33:33;;;;;;;;;66.75;44.75;;;;;6.67;65.29;102896.59;5014227;28;45345;-61
2022/01/27 03:35:59;;;;;;;;;68.75;44.75;;;;;6.66;65.43;102900.97;5013507;28;45432;-61
2022/01/27 03:38:24;;;;;;;;;56.25;45.25;;;;;6.66;65.12;102902.72;5012674;28;45436;-60
2022/01/27 03:40:50;;;;;;;;;73.75;48.25;;;;;6.68;65.51;102908.81;5013729;28;45454;-61
2022/01/27 03:43:15;;;;;;;;;62.25;43.75;;;;;6.65;65.22;102904.50;5012965;28;45523;-61
2022/01/27 03:45:41;;;;;;;;;57.25;43.00;;;;;6.67;65.20;102902.72;5011498;28;45249;-61
2022/01/27 03:48:07;;;;;;;;;64.75;46.00;;;;;6.66;65.65;102900.97;5010790;28;45437;-61
2022/01/27 03:50:33;;;;;;;;;56.50;42.50;;;;;6.67;65.15;102907.94;5010777;28;45535;-61
2022/01/27 03:52:58;;;;;;;;;55.75;43.00;;;;;6.69;65.55;102900.94;5010151;28;45484;-61
2022/01/27 03:55:24;;;;;;;;;62.50;42.25;;;;;6.71;65.32;102898.31;5010215;28;45460;-61
2022/01/27 03:57:50;;;;;;;;;62.75;43.50;;;;;6.72;65.05;102895.69;5010214;28;45368;-61
2022/01/27 04:00:16;;;;;;;;;58.00;43.75;;;;;6.74;65.21;102893.06;5011322;28;45353;-61
2022/01/27 04:02:54;;;;;;;;;64.00;46.50;;;;;6.74;65.08;102892.19;5011748;28;45492;-61
2022/01/27 04:05:20;;;;;;;;;26.75;10.25;;;;;6.70;64.83;102891.34;5010051;28;45308;-61
2022/01/27 04:07:45;;;;;;;;;62.75;43.25;;;;;6.70;65.51;102891.34;5009837;28;46423;-61
2022/01/27 04:10:11;;;;;;;;;59.00;45.50;;;;;6.71;65.48;102898.31;5010422;28;45377;-61
2022/01/27 04:12:37;;;;;;;;;64.00;45.00;;;;;6.69;65.07;102889.59;5010665;28;45316;-61
2022/01/27 04:15:04;;;;;;;;;60.50;43.00;;;;;6.69;65.59;102895.72;5013161;28;45549;-61
2022/01/27 04:17:29;;;;;;;;;64.75;45.25;;;;;6.72;65.20;102900.06;5010925;28;45436;-61
2022/01/27 04:19:55;;;;;;;;;64.25;42.75;;;;;6.71;65.38;102890.44;5012330;28;45415;-61
2022/01/27 04:22:20;;;;;;;;;58.50;43.50;;;;;6.67;65.01;102892.25;5011489;28;45480;-62
2022/01/27 04:24:46;;;;;;;;;60.50;41.50;;;;;6.65;65.27;102893.16;5008622;28;45631;-61
2022/01/27 04:27:18;;;;;;;;;60.25;45.50;;;;;6.66;65.73;102894.88;5010246;28;46188;-61
2022/01/27 04:29:43;;;;;;;;;64.25;43.25;;;;;6.66;65.72;102894.88;5007016;28;45690;-61
2022/01/27 04:32:11;;;;;;;;;55.75;39.75;;;;;6.69;65.68;102894.84;5009753;28;45314;-61
2022/01/27 04:34:39;;;;;;;;;61.25;43.00;;;;;6.70;65.58;102886.97;5009548;28;45753;-61
2022/01/27 04:37:06;;;;;;;;;56.75;45.00;;;;;6.71;65.42;102893.06;5010660;28;45399;-61
2022/01/27 04:39:40;;;;;;;;;55.00;46.00;;;;;6.72;65.07;102897.44;4967057;28;1308180;-62
2022/01/27 04:42:19;;;;;;;;;60.50;45.25;;;;;6.72;65.30;102900.94;5010622;28;45337;-61
2022/01/27 04:44:57;;;;;;;;;58.25;43.50;;;;;6.73;65.19;102896.56;5012268;28;45489;-61
2022/01/27 04:47:30;;;;;;;;;55.50;42.00;;;;;6.71;65.84;102891.34;5010218;28;46112;-61
2022/01/27 04:49:57;;;;;;;;;58.75;46.00;;;;;6.70;65.94;102891.34;5011411;28;45592;-61
2022/01/27 04:52:24;;;;;;;;;56.25;44.00;;;;;6.73;65.20;102888.72;5009021;28;45310;-61
2022/01/27 04:57:17;;;;;;;;;62.50;44.50;;;;;6.70;65.28;102879.09;5008476;28;45964;-61
2022/01/27 04:59:44;;;;;;;;;63.50;50.00;;;;;6.71;65.30;102879.97;5009519;28;45171;-61
2022/01/27 05:02:19;;;;;;;;;60.00;41.25;;;;;6.70;65.77;102884.34;5011494;28;45229;-62
2022/01/27 05:04:49;;;;;;;;;56.25;40.75;;;;;6.63;65.26;102884.41;5011800;28;45459;-61
2022/01/27 05:07:14;;;;;;;;;52.50;40.25;;;;;6.60;65.99;102890.56;5012964;28;46377;-62
2022/01/27 05:09:49;;;;;;;;;66.75;45.25;;;;;6.60;65.57;102885.31;5012432;28;45302;-62
2022/01/27 05:12:24;;;;;;;;;62.00;40.75;;;;;6.59;65.94;102882.72;5009631;28;46425;-61
2022/01/27 05:14:51;;;;;;;;;59.50;45.25;;;;;6.60;65.47;102881.81;5012209;28;45321;-61
2022/01/27 05:17:18;;;;;;;;;60.75;45.50;;;;;6.62;66.06;102882.69;5009710;28;45368;-61
2022/01/27 05:19:47;;;;;;;;;62.00;44.25;;;;;6.62;65.80;102875.69;5009720;28;45374;-62
2022/01/27 05:22:13;;;;;;;;;58.00;42.25;;;;;6.63;65.96;102877.41;5009493;28;45383;-61
2022/01/27 05:24:38;;;;;;;;;59.00;41.50;;;;;6.62;65.95;102875.69;5010259;28;45474;-62
2022/01/27 05:27:04;;;;;;;;;64.25;44.50;;;;;6.63;65.63;102880.03;5011248;28;45412;-62
2022/01/27 05:29:29;;;;;;;;;58.00;42.25;;;;;6.65;65.49;102872.19;5011003;28;45369;-61
2022/01/27 05:31:55;;;;;;;;;59.50;42.75;;;;;6.65;65.74;102872.19;5012180;28;45359;-61
2022/01/27 05:34:20;;;;;;;;;54.00;40.50;;;;;6.66;65.81;102874.78;5012457;28;45329;-61
2022/01/27 05:36:46;;;;;;;;;59.50;45.00;;;;;6.63;65.78;102873.94;5011080;28;46220;-62
2022/01/27 05:39:12;;;;;;;;;44.00;38.75;;;;;6.66;65.72;102872.19;5012783;28;45431;-61
2022/01/27 05:41:38;;;;;;;;;60.50;41.00;;;;;6.61;65.94;102879.19;5006294;28;45316;-61
2022/01/27 05:44:03;;;;;;;;;65.00;41.25;;;;;6.64;65.67;102873.09;5010422;28;45475;-62
2022/01/27 05:46:29;;;;;;;;;63.75;45.25;;;;;6.66;65.52;102872.19;5010276;28;45427;-62
2022/01/27 05:48:54;;;;;;;;;55.00;41.75;;;;;6.66;65.28;102873.94;5011297;28;45410;-62
2022/01/27 05:51:20;;;;;;;;;52.00;41.75;;;;;6.65;65.41;102870.44;5011938;28;45362;-62
2022/01/27 05:53:46;;;;;;;;;53.50;42.25;;;;;6.67;65.76;102862.56;5011604;28;45340;-62
2022/01/27 05:56:12;;;;;;;;;49.75;37.25;;;;;6.66;65.52;102864.31;5011250;28;45507;-62
2022/01/27 05:58:37;;;;;;;;;53.75;41.50;;;;;6.63;65.58;102871.31;5009880;28;45451;-62
2022/01/27 06:01:03;;;;;;;;;47.75;38.25;;;;;6.60;65.79;102869.59;5009444;28;45459;-62
2022/01/27 06:03:28;;;;;;;;;56.00;40.25;;;;;6.58;65.85;102866.13;5009130;28;45810;-61
2022/01/27 06:05:54;;;;;;;;;58.50;42.25;;;;;6.58;65.79;102868.75;5008836;28;46037;-62
2022/01/27 06:08:19;;;;;;;;;55.50;43.50;;;;;6.59;65.76;102877.47;5009283;28;45309;-62
2022/01/27 06:10:45;;;;;;;;;50.50;41.50;;;;;6.64;66.23;102883.56;5020828;28;45339;-62
2022/01/27 06:13:10;;;;;;;;;57.00;40.25;;;;;6.66;65.72;102880.03;5020725;28;45359;-61
2022/01/27 06:15:36;;;;;;;;;50.50;41.00;;;;;6.66;66.06;102887.88;5020829;28;46024;-62
2022/01/27 06:18:01;;;;;;;;;71.00;50.67;;;;;6.68;65.90;102888.72;5020232;28;45237;-62
2022/01/27 06:20:29;;;;;;;;;59.25;42.00;;;;;6.67;66.17;102888.75;5017564;28;45300;-62
2022/01/27 06:22:59;;;;;;;;;56.25;40.25;;;;;6.68;66.13;102893.09;5014342;28;45448;-61
2022/01/27 06:25:26;;;;;;;;;47.25;40.00;;;;;6.69;65.96;102889.59;5017498;28;45362;-61
2022/01/27 06:27:53;;;;;;;;;52.25;40.25;;;;;6.68;65.87;102887.88;5014915;28;45333;-61
2022/01/27 06:30:19;;;;;;;;;59.25;39.50;;;;;6.64;65.84;102894.91;5018347;28;45409;-61
2022/01/27 06:32:45;;;;;;;;;53.00;41.00;;;;;6.64;65.95;102892.28;5014634;28;45358;-62
2022/01/27 06:35:10;;;;;;;;;50.00;39.00;;;;;6.64;65.33;102896.66;5009898;28;46035;-61
2022/01/27 06:37:36;;;;;;;;;54.25;40.50;;;;;6.64;65.97;102886.19;5005346;28;45298;-61
2022/01/27 06:40:03;;;;;;;;;56.00;38.50;;;;;6.64;65.71;102888.78;5012717;28;45488;-63
2022/01/27 06:42:29;;;;;;;;;49.00;38.50;;;;;6.64;65.93;102897.50;5005354;28;45390;-63
2022/01/27 06:44:54;;;;;;;;;48.25;36.50;;;;;6.64;65.95;102902.75;5011338;28;47873;-63
2022/01/27 06:47:21;;;;;;;;;46.25;37.75;;;;;6.60;65.37;102901.03;5014239;28;45351;-62
2022/01/27 06:49:47;;;;;;;;;62.00;41.00;;;;;6.60;65.96;102901.03;5020157;28;46467;-62
2022/01/27 06:52:12;;;;;;;;;54.25;40.50;;;;;6.62;65.90;102895.78;5019339;28;45467;-62
2022/01/27 06:54:38;;;;;;;;;52.50;39.50;;;;;6.63;65.65;102893.13;5000486;28;45558;-62
2022/01/27 06:57:05;;;;;;;;;60.25;40.25;;;;;6.60;65.57;102908.00;5002985;28;45242;-62
2022/01/27 06:59:31;;;;;;;;;55.75;40.25;;;;;6.59;66.20;102907.16;5000348;28;45677;-63
2022/01/27 07:01:57;;;;;;;;;57.25;41.25;;;;;6.57;65.88;102894.97;4999953;28;45523;-62
2022/01/27 07:04:23;;;;;;;;;35.75;35.75;;;;;6.58;66.04;102902.78;5000109;28;45999;-62
2022/01/27 07:06:49;;;;;;;;;62.75;41.75;;;;;6.58;66.21;102899.31;4999646;28;45349;-67
2022/01/27 07:09:14;;;;;;;;;36.00;26.50;;;;;6.60;65.48;102897.53;5001225;28;45515;-62
2022/01/27 07:11:40;;;;;;;;;57.00;38.25;;;;;6.61;66.31;102901.88;5005147;28;45465;-62
2022/01/27 07:14:06;;;;;;;;;54.25;38.25;;;;;6.59;65.58;102896.66;4999809;28;45464;-62
2022/01/27 07:16:33;;;;;;;;;63.00;43.00;;;;;6.59;66.10;102901.03;4999944;28;45299;-62
2022/01/27 07:18:59;;;;;;;;;52.00;38.50;;;;;6.62;65.81;102893.16;5000050;28;45230;-62
2022/01/27 07:21:24;;;;;;;;;50.75;38.50;;;;;6.59;65.85;102894.06;5000236;28;45451;-62
2022/01/27 07:23:50;;;;;;;;;58.00;40.50;;;;;6.59;65.94;102898.41;5003031;28;45249;-62
2022/01/27 07:26:16;;;;;;;;;40.00;23.75;;;;;6.59;66.45;102906.28;5003263;28;45216;-62
2022/01/27 07:28:42;;;;;;;;;47.50;34.75;;;;;6.61;66.04;102900.13;5003732;28;45345;-62
2022/01/27 07:31:07;;;;;;;;;58.50;38.00;;;;;6.63;65.66;102898.38;5003472;28;45346;-62
2022/01/27 07:33:33;;;;;;;;;53.25;39.00;;;;;6.60;66.11;102892.31;5003183;28;45471;-62
2022/01/27 07:35:58;;;;;;;;;59.25;41.00;;;;;6.63;65.50;102901.00;5003360;28;45394;-62
2022/01/27 07:38:26;;;;;;;;;59.75;46.00;;;;;6.63;66.08;102895.75;5003480;28;45294;-62
2022/01/27 07:40:52;;;;;;;;;41.75;32.00;;;;;6.67;66.21;102894.00;5008325;28;45394;-62
2022/01/27 07:43:18;;;;;;;;;51.00;39.75;;;;;6.67;66.20;102894.00;5022800;28;45266;-62
2022/01/27 07:45:44;;;;;;;;;47.75;36.75;;;;;6.67;66.19;102897.47;5022896;28;45218;-62
2022/01/27 07:48:10;;;;;;;;;53.50;40.00;;;;;6.68;66.33;102896.59;5023000;28;45494;-62
2022/01/27 07:50:35;;;;;;;;;46.25;37.25;;;;;6.71;66.09;102899.22;5022908;28;45377;-62
2022/01/27 07:53:01;;;;;;;;;55.50;40.00;;;;;6.76;66.26;102896.53;5014891;28;46014;-62
2022/01/27 07:55:26;;;;;;;;;60.75;42.50;;;;;6.77;66.27;102890.41;5002926;28;45411;-62
2022/01/27 07:57:52;;;;;;;;;52.00;43.25;;;;;6.81;65.81;102896.50;5003254;28;45483;-62
2022/01/27 08:00:17;;;;;;;;;61.00;41.00;;;;;6.79;65.54;102890.38;5003179;28;45428;-62
2022/01/27 08:02:45;;;;;;;;;46.00;37.50;;;;;6.79;66.20;102909.59;5002250;28;46164;-62
2022/01/27 08:05:11;;;;;;;;;50.75;35.25;;;;;6.84;65.89;102904.31;5002804;28;45494;-62
2022/01/27 08:07:38;;;;;;;;;49.25;40.25;;;;;6.86;65.70;102900.78;5003175;28;45305;-63
2022/01/27 08:10:04;;;;;;;;;49.25;38.75;;;;;6.86;65.70;102906.03;5002796;28;45508;-63
2022/01/27 08:12:29;;;;;;;;;48.75;38.25;;;;;6.90;66.04;102901.66;5002356;28;45358;-63
2022/01/27 08:14:55;;;;;;;;;51.00;38.00;;;;;6.96;66.06;102906.84;5002444;28;45261;-62
2022/01/27 08:17:20;;;;;;;;;54.75;37.25;;;;;6.97;65.65;102904.19;5002680;28;45404;-63
2022/01/27 08:19:46;;;;;;;;;48.00;42.50;;;;;6.97;65.56;102906.81;5002710;28;45171;-62
2022/01/27 08:22:11;;;;;;;;;56.50;41.75;;;;;7.00;65.92;102908.53;5002663;28;45382;-63
2022/01/27 08:24:38;;;;;;;;;42.75;38.00;;;;;6.99;65.78;102910.28;5002381;28;45347;-63
2022/01/27 08:27:06;;;;;;;;;35.50;31.00;;;;;7.02;65.82;102905.88;5002691;28;45389;-62
2022/01/27 08:29:38;;;;;;;;;47.25;38.25;;;;;7.05;65.88;102918.97;5002664;28;45266;-63
2022/01/27 08:32:07;;;;;;;;;48.00;37.75;;;;;7.10;65.90;102922.41;5002250;28;46244;-62
2022/01/27 08:34:36;;;;;;;;;48.75;40.00;;;;;7.17;65.41;102921.47;5001282;28;45229;-62
2022/01/27 08:37:06;;;;;;;;;56.25;40.25;;;;;7.19;65.57;102917.97;5002656;28;45314;-63
2022/01/27 08:39:32;;;;;;;;;51.00;41.00;;;;;7.23;65.35;102913.53;5005702;28;45443;-62
2022/01/27 08:41:58;;;;;;;;;49.75;38.50;;;;;7.25;65.37;102914.38;5012774;28;45297;-63
2022/01/27 08:44:24;;;;;;;;;55.50;38.75;;;;;7.29;65.40;102916.09;5022210;28;45246;-63
2022/01/27 08:46:50;;;;;;;;;59.75;42.50;;;;;7.34;65.36;102913.41;5022192;28;45371;-62
2022/01/27 08:49:18;;;;;;;;;53.25;40.50;;;;;7.38;65.27;102915.13;5022177;28;45470;-63
2022/01/27 08:51:43;;;;;;;;;50.00;32.75;;;;;7.38;65.30;102905.50;5021971;28;46338;-63
2022/01/27 08:54:09;;;;;;;;;56.25;42.00;;;;;7.41;65.10;102915.97;5004700;28;45257;-63
2022/01/27 08:56:34;;;;;;;;;58.25;41.50;;;;;7.44;64.94;102905.44;5001249;28;45393;-63
2022/01/27 08:59:00;;;;;;;;;49.00;39.25;;;;;7.47;65.05;102909.78;5002113;28;45507;-63
2022/01/27 09:01:27;;;;;;;;;51.50;34.75;;;;;7.49;64.82;102895.75;5001807;28;45238;-63
2022/01/27 09:03:53;;;;;;;;;59.00;44.00;;;;;7.52;64.86;102905.38;5001628;28;45186;-63
2022/01/27 09:06:19;;;;;;;;;49.50;38.00;;;;;7.57;64.67;102907.03;5002476;28;45216;-63
2022/01/27 09:08:45;;;;;;;;;53.00;40.25;;;;;7.62;64.49;102895.63;5002057;28;45478;-63
2022/01/27 09:11:12;;;;;;;;;55.75;38.75;;;;;7.66;64.83;102897.31;5002000;28;45979;-63
2022/01/27 09:13:38;;;;;;;;;52.25;41.75;;;;;7.71;64.39;102895.50;5017761;28;45389;-63
2022/01/27 09:16:07;;;;;;;;;55.25;40.75;;;;;7.76;64.45;102891.06;5011178;28;45377;-63
2022/01/27 09:18:33;;;;;;;;;61.25;44.75;;;;;7.81;64.34;102884.84;5001750;28;45218;-63
2022/01/27 09:21:02;;;;;;;;;54.75;37.25;;;;;7.86;64.26;102886.56;5001737;28;45243;-63
2022/01/27 09:23:27;;;;;;;;;45.75;39.75;;;;;7.88;64.22;102883.03;5001627;28;45627;-63
2022/01/27 09:25:56;;;;;;;;;51.00;40.75;;;;;7.95;64.45;102889.06;5001901;28;45321;-63
2022/01/27 09:28:22;;;;;;;;;49.00;40.75;;;;;8.01;63.91;102883.72;5001720;28;45231;-63
2022/01/27 09:30:48;;;;;;;;;52.25;40.00;;;;;8.04;63.63;102892.41;5001721;28;46025;-60
2022/01/27 09:33:13;;;;;;;;;49.50;39.25;;;;;8.02;63.60;102888.94;5019622;28;45302;-60
2022/01/27 09:35:39;;;;;;;;;54.75;43.50;;;;;7.99;63.66;102889.00;5021533;28;45313;-60
2022/01/27 09:38:05;;;;;;;;;56.75;38.00;;;;;8.01;63.73;102891.59;5021338;28;45624;-60
2022/01/27 09:40:33;;;;;;;;;56.50;40.50;;;;;7.99;64.00;102894.25;5010489;28;45384;-60
2022/01/27 09:43:00;;;;;;;;;56.25;39.75;;;;;8.00;63.67;102898.63;5011457;28;45442;-62
2022/01/27 09:45:28;;;;;;;;;51.00;38.00;;;;;8.07;63.88;102895.00;5013523;28;45463;-64
2022/01/27 09:48:10;;;;;;;;;53.00;40.25;;;;;8.15;63.74;102894.91;5010587;28;45643;-63
2022/01/27 09:53:22;;;;;;;;;53.75;38.25;;;;;8.23;63.20;102879.91;4998710;28;45584;-61
2022/01/27 09:55:47;;;;;;;;;51.25;39.75;;;;;8.21;63.31;102879.03;5003510;28;45285;-62
2022/01/27 09:58:13;;;;;;;;;45.25;38.00;;;;;8.21;63.33;102889.53;5001243;28;45282;-64
2022/01/27 10:00:39;;;;;;;;;56.25;42.00;;;;;8.22;63.17;102878.19;5000818;28;45910;-61
2022/01/27 10:03:13;;;;;;;;;48.50;37.25;;;;;8.24;63.35;102876.38;5011160;28;45623;-70
2022/01/27 10:05:41;;;;;;;;;37.25;28.25;;;;;8.30;63.34;102871.06;5002303;28;45325;-65
2022/01/27 10:08:11;;;;;;;;;49.00;35.25;;;;;8.35;63.40;102871.00;5001089;28;45384;-64
2022/01/27 10:10:48;;;;;;;;;42.75;37.00;;;;;8.36;63.38;102865.72;5000753;28;45339;-61
2022/01/27 10:13:40;;;;;;;;;47.50;36.25;;;;;8.42;63.22;102871.75;5015753;28;45350;-61
2022/01/27 10:16:07;;;;;;;;;48.00;37.25;;;;;8.48;63.53;102871.69;5009756;28;45366;-62
2022/01/27 10:18:36;;;;;;;;;41.75;34.25;;;;;8.53;63.23;102873.34;5009597;28;45494;-65
2022/01/27 10:21:05;;;;;;;;;49.50;40.50;;;;;8.60;63.01;102890.72;5011498;28;46483;-62
2022/01/27 10:23:33;;;;;;;;;42.25;32.25;;;;;8.63;62.67;102885.41;5011280;28;45399;-62
2022/01/27 10:26:15;;;;;;;;;44.50;37.00;;;;;8.63;62.78;102876.69;5007515;28;45263;-63
2022/01/27 10:28:59;;;;;;;;;42.25;35.25;;;;;8.69;62.71;102876.59;5000617;28;45573;-59
2022/01/27 10:31:27;;;;;;;;;42.25;36.50;;;;;8.74;62.55;102882.59;5000173;28;45480;-60
2022/01/27 10:33:59;;;;;;;;;53.75;36.75;;;;;8.73;62.90;102880.88;5000767;28;45281;-63
2022/01/27 10:36:27;;;;;;;;;40.00;36.75;;;;;8.77;62.67;102877.31;5000359;28;45507;-67
2022/01/27 10:39:04;;;;;;;;;32.00;30.00;;;;;8.77;62.35;102876.41;5002394;28;45531;-62
2022/01/27 10:41:33;;;;;;;;;51.50;36.00;;;;;8.79;62.77;102867.63;5006020;28;45424;-62
2022/01/27 10:44:07;;;;;;;;;49.00;34.75;;;;;8.82;62.38;102864.06;5010751;28;45626;-62
2022/01/27 10:46:33;;;;;;;;;55.00;35.25;;;;;8.85;61.80;102864.03;5008592;28;45351;-59
2022/01/27 10:51:28;;;;;;;;;45.00;39.75;;;;;8.88;62.53;102877.13;5010679;28;45949;-59
2022/01/27 10:54:06;;;;;;;;;42.25;37.00;;;;;8.90;62.63;102872.69;5008361;28;45400;-65
2022/01/27 10:56:39;;;;;;;;;54.75;36.75;;;;;8.92;62.61;102878.78;5009723;28;45407;-61
2022/01/27 10:59:16;;;;;;;;;44.25;36.25;;;;;8.95;62.08;102876.97;5013672;28;45513;-63
2022/01/27 11:01:50;;;;;;;;;46.25;36.00;;;;;8.99;62.41;102872.50;5011522;28;45559;-61
2022/01/27 11:04:18;;;;;;;;;40.75;33.25;;;;;9.01;62.07;102876.00;5011539;28;45440;-61
2022/01/27 11:06:58;;;;;;;;;50.25;38.50;;;;;9.04;62.33;102878.56;5013155;28;45495;-63
2022/01/27 11:09:25;;;;;;;;;45.25;37.50;;;;;9.06;61.92;102879.41;5012979;28;45460;-61
2022/01/27 11:11:55;;;;;;;;;60.50;44.75;;;;;9.08;62.41;102888.09;5015000;28;45998;-60
2022/01/27 11:14:25;;;;;;;;;72.25;52.50;;;;;9.09;61.94;102881.97;5015131;28;45312;-62
2022/01/27 11:16:55;;;;;;;;;50.25;32.00;;;;;9.03;62.22;102883.84;5009927;28;45308;-65
2022/01/27 11:19:36;;;;;;;;;50.75;40.00;;;;;8.98;61.68;102880.44;5017274;28;45514;-64
2022/01/27 11:22:11;;;;;;;;;42.00;34.75;;;;;9.01;62.18;102875.13;5010701;28;45500;-62
2022/01/27 11:27:34;;;;;;;;;48.75;35.50;;;;;9.02;61.83;102869.84;5013775;28;45322;-59
2022/01/27 11:30:03;;;;;;;;;41.00;32.25;;;;;9.03;61.79;102868.94;5028664;28;45472;-61
2022/01/27 11:32:36;;;;;;;;;42.75;37.50;;;;;9.06;62.04;102868.00;5014016;28;46325;-60
2022/01/27 11:35:14;;;;;;;;;41.00;34.25;;;;;9.08;61.90;102863.59;5012535;28;45388;-61
2022/01/27 11:37:40;;;;;;;;;44.25;37.25;;;;;9.09;61.67;102857.47;5012350;28;45467;-69
2022/01/27 11:40:09;;;;;;;;;36.75;29.50;;;;;9.09;62.31;102854.84;5017861;28;45408;-70
2022/01/27 11:42:35;;;;;;;;;52.75;38.25;;;;;9.15;62.02;102850.28;5011001;28;46326;-69
2022/01/27 11:45:25;;;;;;;;;46.25;36.75;;;;;9.26;61.82;102847.47;5011455;28;45252;-65
2022/01/27 11:47:57;;;;;;;;;37.00;34.00;;;;;9.32;61.81;102835.94;5011363;28;45337;-60
2022/01/27 11:50:33;;;;;;;;;41.25;35.75;;;;;9.34;61.99;102835.03;5011467;28;45332;-62
2022/01/27 11:53:01;;;;;;;;;49.75;38.00;;;;;9.44;61.53;102833.06;5013188;28;46236;-60
2022/01/27 11:55:26;;;;;;;;;38.50;36.75;;;;;9.50;61.83;102827.69;5013815;28;45279;-62
2022/01/27 11:57:55;;;;;;;;;46.00;36.75;;;;;9.53;61.60;102822.34;5013694;28;45540;-61
2022/01/27 12:00:24;;;;;;;;;50.50;39.00;;;;;9.58;61.52;102836.28;5011397;28;45411;-63
2022/01/27 12:02:56;;;;;;;;;45.25;38.50;;;;;9.64;60.93;102835.28;5011181;28;46003;-61
2022/01/27 12:05:25;;;;;;;;;45.25;35.00;;;;;9.65;61.01;102827.34;5014850;28;45463;-61